Time;durP1;ratioP1;P1;durP2;ratioP2;P2;SDS_P1;SDS_P2;PMS_P1;PMS_P2;Temp;Humidity;BMP_temperature;BMP_pressure;BME280_temperature;BME280_humidity;BME280_pressure;Samples;Min_cycle;Max_cycle;Signal;HPM_P1;HPM_P2
2022/05/25 00:01:35;;;;;;;1.10;1.10;;;17.20;99.90;;;;;;5091394;28;20220;-76
2022/05/25 00:04:02;;;;;;;1.40;1.30;;;17.20;99.90;;;;;;5099472;28;20228;-76
2022/05/25 00:06:29;;;;;;;1.33;1.23;;;17.20;99.90;;;;;;5094809;28;20202;-77
2022/05/25 00:08:56;;;;;;;1.20;1.20;;;17.20;99.90;;;;;;5099664;28;20695;-77
2022/05/25 00:11:23;;;;;;;1.13;1.13;;;17.20;99.90;;;;;;5097244;28;20210;-77
2022/05/25 00:13:51;;;;;;;1.30;1.20;;;17.30;99.90;;;;;;5101225;28;20209;-76
2022/05/25 00:16:19;;;;;;;1.35;1.25;;;17.30;99.90;;;;;;5100008;28;20204;-76
2022/05/25 00:21:27;;;;;;;1.50;1.40;;;17.20;99.90;;;;;;5097418;28;20216;-76
2022/05/25 00:23:54;;;;;;;1.48;1.38;;;17.20;99.90;;;;;;5096126;28;20227;-76
2022/05/25 00:26:21;;;;;;;1.38;1.27;;;17.20;99.90;;;;;;5092970;28;20616;-76
2022/05/25 00:28:48;;;;;;;1.67;1.58;;;17.20;99.90;;;;;;5098006;28;20775;-76
2022/05/25 00:31:15;;;;;;;1.50;1.40;;;17.20;99.90;;;;;;5107693;28;20270;-76
2022/05/25 00:33:44;;;;;;;1.30;1.20;;;17.20;99.90;;;;;;5099026;28;20238;-76
2022/05/25 00:36:12;;;;;;;1.58;1.48;;;17.20;99.90;;;;;;5095657;28;20254;-76
2022/05/25 00:38:39;;;;;;;1.45;1.35;;;17.20;99.90;;;;;;5097666;28;20784;-76
2022/05/25 00:41:06;;;;;;;1.98;1.75;;;17.10;99.90;;;;;;5094862;28;20271;-76
2022/05/25 00:43:33;;;;;;;1.48;1.38;;;17.10;99.90;;;;;;5098312;28;20236;-76
2022/05/25 00:46:05;;;;;;;1.20;1.10;;;17.10;99.90;;;;;;5101141;28;20196;-76
2022/05/25 00:48:36;;;;;;;1.30;1.30;;;17.10;99.90;;;;;;5097896;28;20217;-76
2022/05/25 00:51:15;;;;;;;1.42;1.33;;;17.10;99.90;;;;;;5098236;28;20640;-76
2022/05/25 00:53:45;;;;;;;1.60;1.50;;;17.10;99.90;;;;;;5098580;28;20216;-76
2022/05/25 00:56:16;;;;;;;1.67;1.48;;;17.10;99.90;;;;;;5097851;28;20665;-76
2022/05/25 00:58:50;;;;;;;1.40;1.30;;;17.10;99.90;;;;;;5095600;28;20590;-76
2022/05/25 01:01:17;;;;;;;1.75;1.50;;;17.00;99.90;;;;;;5100945;28;20225;-76
2022/05/25 01:03:44;;;;;;;1.52;1.42;;;17.00;99.90;;;;;;5097884;28;20218;-76
2022/05/25 01:06:23;;;;;;;2.08;1.50;;;17.00;99.90;;;;;;5102020;28;20200;-76
2022/05/25 01:08:58;;;;;;;1.40;1.40;;;17.00;99.90;;;;;;5097312;28;20208;-76
2022/05/25 01:11:40;;;;;;;1.80;1.42;;;17.10;99.90;;;;;;5093645;28;20261;-76
2022/05/25 01:14:18;;;;;;;1.58;1.48;;;17.10;99.90;;;;;;5094223;28;20293;-76
2022/05/25 01:16:51;;;;;;;1.73;1.63;;;17.10;99.90;;;;;;5098654;28;20652;-76
2022/05/25 01:19:40;;;;;;;1.88;1.77;;;17.00;99.90;;;;;;5092070;28;20231;-76
2022/05/25 01:22:25;;;;;;;1.70;1.60;;;17.00;99.90;;;;;;5098242;28;20285;-76
2022/05/25 01:25:03;;;;;;;1.65;1.55;;;17.00;99.90;;;;;;5095187;28;20213;-76
2022/05/25 01:27:36;;;;;;;2.03;1.92;;;17.00;99.90;;;;;;5094872;28;20222;-76
2022/05/25 01:30:09;;;;;;;1.80;1.70;;;17.00;99.90;;;;;;5094128;28;20193;-76
2022/05/25 01:32:47;;;;;;;2.30;1.80;;;17.00;99.90;;;;;;5094007;28;20233;-76
2022/05/25 01:35:31;;;;;;;1.73;1.63;;;16.90;99.90;;;;;;5094915;28;20206;-76
2022/05/25 01:38:06;;;;;;;1.98;1.88;;;16.90;99.90;;;;;;5092884;28;20224;-76
2022/05/25 01:40:39;;;;;;;1.77;1.67;;;16.80;99.90;;;;;;5101328;28;20646;-75
2022/05/25 01:43:10;;;;;;;1.80;1.70;;;16.80;99.90;;;;;;5094764;28;20230;-76
2022/05/25 01:45:44;;;;;;;2.03;1.70;;;16.80;99.90;;;;;;5098531;28;20678;-75
2022/05/25 01:48:13;;;;;;;1.83;1.70;;;16.70;99.90;;;;;;5095837;28;20217;-75
2022/05/25 01:50:45;;;;;;;1.83;1.73;;;16.70;99.90;;;;;;5096309;28;20213;-75
2022/05/25 01:53:15;;;;;;;1.83;1.73;;;16.70;99.90;;;;;;5119700;22;20229;-72
2022/05/25 01:55:47;;;;;;;1.92;1.83;;;16.70;99.90;;;;;;5079043;28;20205;-75
2022/05/25 01:58:18;;;;;;;2.45;2.00;;;16.80;99.90;;;;;;5082358;28;20221;-75
2022/05/25 02:00:48;;;;;;;2.50;2.30;;;16.80;99.90;;;;;;5082233;28;20285;-75
2022/05/25 02:06:37;;;;;;;1.60;1.50;;;16.80;99.90;;;;;;5077539;28;20497;-75
2022/05/25 02:09:16;;;;;;;1.88;1.77;;;16.70;99.90;;;;;;5067727;28;20727;-74
2022/05/25 02:11:45;;;;;;;1.90;1.80;;;16.60;99.90;;;;;;5070463;28;20276;-74
2022/05/25 02:14:24;;;;;;;2.30;1.50;;;16.70;99.90;;;;;;5069087;28;20604;-74
2022/05/25 02:17:01;;;;;;;1.90;1.80;;;16.70;99.90;;;;;;5067254;28;20198;-74
2022/05/25 02:19:37;;;;;;;1.73;1.63;;;16.70;99.90;;;;;;5068847;28;20267;-74
2022/05/25 02:22:11;;;;;;;1.65;1.55;;;16.70;99.90;;;;;;5070324;28;20249;-75
2022/05/25 02:24:48;;;;;;;1.90;1.80;;;16.80;99.90;;;;;;5064944;28;20241;-74
2022/05/25 02:27:22;;;;;;;1.77;1.67;;;16.80;99.90;;;;;;5069591;28;20220;-74
2022/05/25 02:29:53;;;;;;;1.75;1.65;;;16.70;99.90;;;;;;5069598;28;20300;-74
2022/05/25 02:32:27;;;;;;;2.08;1.98;;;16.70;99.90;;;;;;5068910;28;20598;-74
2022/05/25 02:34:57;;;;;;;1.80;1.70;;;16.70;99.90;;;;;;5044206;28;20219;-74
2022/05/25 02:37:27;;;;;;;1.77;1.67;;;16.80;99.90;;;;;;5049115;28;20221;-74
2022/05/25 02:39:55;;;;;;;1.90;1.80;;;16.70;99.90;;;;;;5061162;28;20222;-74
2022/05/25 02:42:22;;;;;;;3.05;2.05;;;16.70;99.90;;;;;;5064968;28;20214;-74
2022/05/25 02:44:50;;;;;;;2.13;1.73;;;16.70;99.90;;;;;;5067596;28;20222;-74
2022/05/25 02:47:17;;;;;;;2.15;1.95;;;16.60;99.90;;;;;;5067082;28;20194;-74
2022/05/25 02:49:46;;;;;;;1.83;1.73;;;16.60;99.90;;;;;;5050145;28;20642;-75
2022/05/25 02:52:14;;;;;;;1.83;1.73;;;16.60;99.90;;;;;;5048421;28;20231;-74
2022/05/25 02:54:41;;;;;;;2.28;2.13;;;16.60;99.90;;;;;;5048552;28;20873;-74
2022/05/25 02:57:09;;;;;;;2.08;1.98;;;16.60;99.90;;;;;;5057467;28;20203;-74
2022/05/25 02:59:36;;;;;;;2.03;1.92;;;16.70;99.90;;;;;;5047480;28;20225;-75
2022/05/25 03:02:05;;;;;;;2.05;1.85;;;16.60;99.90;;;;;;5048133;28;20346;-75
2022/05/25 03:04:33;;;;;;;2.20;2.03;;;16.60;99.90;;;;;;5047529;28;20223;-75
2022/05/25 03:07:01;;;;;;;2.00;1.90;;;16.50;99.90;;;;;;5048680;28;20631;-75
2022/05/25 03:09:28;;;;;;;2.28;2.17;;;16.50;99.90;;;;;;5047221;28;20705;-75
2022/05/25 03:11:55;;;;;;;2.65;1.90;;;16.40;99.90;;;;;;5048987;28;20712;-74
2022/05/25 03:14:22;;;;;;;3.03;2.70;;;16.30;99.90;;;;;;5047503;28;20215;-74
2022/05/25 03:16:49;;;;;;;4.53;3.38;;;16.00;99.90;;;;;;5048427;28;20206;-75
2022/05/25 03:19:17;;;;;;;2.95;2.70;;;15.70;99.90;;;;;;5047492;28;20276;-74
2022/05/25 03:21:44;;;;;;;2.90;2.70;;;15.50;99.90;;;;;;5049579;28;20278;-74
2022/05/25 03:24:14;;;;;;;4.43;3.00;;;15.50;99.90;;;;;;5048108;28;20258;-74
2022/05/25 03:26:41;;;;;;;2.70;2.50;;;15.40;99.90;;;;;;5049072;28;20229;-74
2022/05/25 03:29:09;;;;;;;2.47;2.28;;;15.40;99.90;;;;;;5048834;28;20215;-75
2022/05/25 03:31:36;;;;;;;2.67;2.47;;;15.50;99.90;;;;;;5046507;28;20222;-74
2022/05/25 03:34:03;;;;;;;2.47;2.28;;;15.70;99.90;;;;;;5047889;28;20705;-74
2022/05/25 03:36:30;;;;;;;2.53;2.33;;;15.70;99.90;;;;;;5044729;28;20203;-74
2022/05/25 03:38:57;;;;;;;2.70;2.50;;;15.70;99.90;;;;;;5047940;28;20227;-74
2022/05/25 03:41:25;;;;;;;2.75;2.55;;;15.60;99.90;;;;;;5047409;28;20475;-75
2022/05/25 03:43:53;;;;;;;4.40;2.38;;;15.70;99.90;;;;;;5048105;28;20218;-74
2022/05/25 03:46:20;;;;;;;2.70;2.50;;;15.60;99.90;;;;;;5051961;28;20226;-74
2022/05/25 03:48:47;;;;;;;2.50;2.30;;;15.60;99.90;;;;;;5065718;28;21550;-73
2022/05/25 03:51:14;;;;;;;2.35;2.15;;;15.50;99.90;;;;;;5049803;28;20202;-73
2022/05/25 03:53:42;;;;;;;2.30;2.10;;;15.50;99.90;;;;;;5051066;28;20223;-73
2022/05/25 03:56:09;;;;;;;2.53;2.33;;;15.50;99.90;;;;;;5053986;28;20195;-74
2022/05/25 03:58:38;;;;;;;2.20;2.05;;;15.50;99.90;;;;;;5052355;28;20222;-74
2022/05/25 04:01:05;;;;;;;2.38;2.28;;;15.60;99.90;;;;;;5052408;28;20252;-73
2022/05/25 04:03:32;;;;;;;2.17;2.08;;;15.70;99.90;;;;;;5051923;28;20223;-74
2022/05/25 04:05:59;;;;;;;2.72;2.53;;;15.80;99.90;;;;;;5051053;28;20314;-74
2022/05/25 04:08:26;;;;;;;2.30;2.17;;;15.90;99.90;;;;;;5051020;28;20221;-73
2022/05/25 04:10:53;;;;;;;2.20;2.00;;;15.90;99.90;;;;;;5051618;28;20206;-74
2022/05/25 04:13:22;;;;;;;2.90;2.40;;;16.00;99.90;;;;;;5055805;28;20533;-74
2022/05/25 04:15:50;;;;;;;2.40;2.30;;;15.90;99.90;;;;;;5071722;28;20215;-74
2022/05/25 04:18:17;;;;;;;2.17;1.98;;;15.80;99.90;;;;;;5071299;28;20230;-74
2022/05/25 04:20:44;;;;;;;3.38;2.67;;;15.80;99.90;;;;;;5069300;28;20253;-73
2022/05/25 04:23:12;;;;;;;2.95;2.38;;;15.80;99.90;;;;;;5058799;28;20246;-74
2022/05/25 04:25:41;;;;;;;2.85;2.10;;;15.80;99.90;;;;;;5072292;28;20217;-74
2022/05/25 04:28:09;;;;;;;2.80;2.60;;;15.90;99.90;;;;;;5070701;28;20198;-74
2022/05/25 04:30:36;;;;;;;2.38;2.25;;;15.90;99.90;;;;;;5067928;28;20195;-74
2022/05/25 04:33:05;;;;;;;2.08;1.98;;;15.80;99.90;;;;;;5070678;28;20210;-74
2022/05/25 04:35:32;;;;;;;2.85;2.22;;;15.80;99.90;;;;;;5071777;28;20271;-74
2022/05/25 04:37:59;;;;;;;2.15;1.92;;;15.80;99.90;;;;;;5071942;28;20217;-74
2022/05/25 04:40:30;;;;;;;2.60;2.40;;;15.90;99.90;;;;;;5076483;28;20202;-74
2022/05/25 04:42:59;;;;;;;2.67;2.47;;;15.90;99.90;;;;;;5068030;28;20220;-73
2022/05/25 04:45:27;;;;;;;2.60;2.40;;;16.00;99.90;;;;;;5068506;28;20276;-74
2022/05/25 04:47:54;;;;;;;2.55;2.35;;;16.00;99.90;;;;;;5070338;28;20542;-74
2022/05/25 04:50:24;;;;;;;2.70;2.50;;;16.10;99.90;;;;;;5068982;28;20537;-73
2022/05/25 04:52:53;;;;;;;2.33;2.15;;;16.00;99.90;;;;;;5071581;28;20221;-74
2022/05/25 04:58:05;;;;;;;2.90;2.70;;;16.10;99.90;;;;;;5068518;28;20200;-74
2022/05/25 05:00:34;;;;;;;2.60;2.40;;;16.10;99.90;;;;;;5068325;28;20227;-73
2022/05/25 05:03:01;;;;;;;2.40;2.20;;;16.00;99.90;;;;;;5070669;28;20522;-74
2022/05/25 05:05:29;;;;;;;2.65;2.45;;;15.90;99.90;;;;;;5070528;28;20218;-75
2022/05/25 05:07:56;;;;;;;2.63;2.47;;;15.90;99.90;;;;;;5067442;28;20199;-74
2022/05/25 05:10:23;;;;;;;2.85;2.65;;;15.90;99.90;;;;;;5064791;28;20210;-74
2022/05/25 05:12:50;;;;;;;2.35;2.25;;;15.90;99.90;;;;;;5068104;28;20268;-75
2022/05/25 05:15:18;;;;;;;2.40;2.25;;;15.90;99.90;;;;;;5070520;28;20225;-73
2022/05/25 05:17:45;;;;;;;2.80;2.60;;;15.90;99.90;;;;;;5069934;28;20256;-73
2022/05/25 05:20:12;;;;;;;2.28;2.17;;;15.90;99.90;;;;;;5069412;28;20288;-74
2022/05/25 05:22:41;;;;;;;2.83;2.63;;;15.80;99.90;;;;;;5067612;28;20229;-75
2022/05/25 05:25:09;;;;;;;2.42;2.22;;;15.70;99.90;;;;;;5069842;28;20271;-75
2022/05/25 05:27:36;;;;;;;3.72;2.63;;;15.60;99.90;;;;;;5070481;28;20224;-74
2022/05/25 05:30:07;;;;;;;2.60;2.40;;;15.60;99.90;;;;;;5065198;28;20657;-74
2022/05/25 05:32:35;;;;;;;3.30;2.10;;;15.70;99.90;;;;;;5079056;28;20210;-74
2022/05/25 05:35:03;;;;;;;3.15;2.55;;;15.60;99.90;;;;;;5069991;28;20221;-75
2022/05/25 05:37:34;;;;;;;2.47;2.28;;;15.70;99.90;;;;;;5066867;28;20229;-75
2022/05/25 05:40:05;;;;;;;3.13;2.58;;;15.60;99.90;;;;;;5069065;28;20221;-75
2022/05/25 05:42:33;;;;;;;2.33;2.13;;;15.50;99.90;;;;;;5068448;28;20214;-74
2022/05/25 05:45:05;;;;;;;2.20;2.10;;;15.40;99.90;;;;;;5068418;28;20807;-77
2022/05/25 05:47:36;;;;;;;1.90;1.80;;;15.40;99.90;;;;;;5069535;28;20217;-77
2022/05/25 05:50:06;;;;;;;2.30;2.20;;;15.50;99.90;;;;;;5069941;28;20553;-74
2022/05/25 05:52:35;;;;;;;2.28;2.17;;;15.50;99.90;;;;;;5069197;28;20226;-74
2022/05/25 05:55:05;;;;;;;2.05;1.95;;;15.60;99.90;;;;;;5069378;28;20214;-76
2022/05/25 05:57:33;;;;;;;2.40;2.17;;;15.70;99.90;;;;;;5067620;28;20232;-74
2022/05/25 06:00:00;;;;;;;2.15;1.98;;;15.60;99.90;;;;;;5069382;28;20256;-76
2022/05/25 06:02:27;;;;;;;1.90;1.80;;;15.60;99.90;;;;;;5069156;28;20232;-76
2022/05/25 06:04:54;;;;;;;1.88;1.77;;;15.70;99.90;;;;;;5065191;28;20301;-76
2022/05/25 06:07:21;;;;;;;1.85;1.75;;;15.70;99.90;;;;;;5064615;28;20206;-76
2022/05/25 06:09:48;;;;;;;1.70;1.60;;;15.80;99.90;;;;;;5066740;28;20756;-75
2022/05/25 06:12:16;;;;;;;2.28;2.03;;;15.90;99.90;;;;;;5066306;28;20339;-75
2022/05/25 06:14:43;;;;;;;1.80;1.70;;;16.00;99.90;;;;;;5066693;28;20724;-75
2022/05/25 06:19:55;;;;;;;1.90;1.80;;;16.10;99.90;;;;;;5064678;28;20224;-76
2022/05/25 06:22:22;;;;;;;4.90;2.10;;;16.10;99.90;;;;;;5069810;28;20230;-75
2022/05/25 06:24:52;;;;;;;62.70;5.07;;;16.00;99.90;;;;;;5064622;28;20765;-76
2022/05/25 06:27:22;;;;;;;2.45;2.35;;;15.90;99.90;;;;;;5068026;28;20190;-75
2022/05/25 06:29:50;;;;;;;2.42;2.30;;;15.80;99.90;;;;;;5063822;28;20210;-76
2022/05/25 06:32:19;;;;;;;2.05;1.95;;;15.70;99.90;;;;;;5068196;28;20230;-75
2022/05/25 06:34:48;;;;;;;3.10;2.55;;;15.70;99.90;;;;;;5066876;28;20214;-75
2022/05/25 06:37:16;;;;;;;2.30;2.10;;;15.60;99.90;;;;;;5069026;28;20482;-75
2022/05/25 06:39:43;;;;;;;1.98;1.88;;;15.60;99.90;;;;;;5068093;28;20221;-76
2022/05/25 06:42:10;;;;;;;2.40;1.52;;;15.70;99.90;;;;;;5066820;28;20910;-76
2022/05/25 06:44:39;;;;;;;2.45;1.80;;;15.70;99.90;;;;;;5067285;28;20241;-75
2022/05/25 06:47:07;;;;;;;1.70;1.60;;;15.80;99.90;;;;;;5064067;28;20199;-75
2022/05/25 06:49:34;;;;;;;1.80;1.70;;;15.90;99.90;;;;;;5070493;28;20214;-74
2022/05/25 06:52:01;;;;;;;2.03;1.92;;;16.00;99.90;;;;;;5068499;28;20233;-75
2022/05/25 06:54:28;;;;;;;1.90;1.80;;;16.10;99.90;;;;;;5068023;28;20210;-75
2022/05/25 06:56:55;;;;;;;2.08;1.80;;;16.20;99.90;;;;;;5068988;28;20194;-75
2022/05/25 06:59:22;;;;;;;2.20;2.00;;;16.20;99.90;;;;;;5068077;28;20226;-75
2022/05/25 07:01:51;;;;;;;2.63;2.42;;;16.30;99.90;;;;;;5068570;28;20194;-75
2022/05/25 07:04:18;;;;;;;2.33;2.13;;;16.30;99.90;;;;;;5062099;28;20246;-75
2022/05/25 07:06:45;;;;;;;3.80;2.30;;;16.30;99.90;;;;;;5068030;28;20214;-75
2022/05/25 07:09:12;;;;;;;3.00;2.47;;;16.30;99.90;;;;;;5064230;28;20769;-75
2022/05/25 07:11:42;;;;;;;3.13;2.42;;;16.30;99.90;;;;;;5066650;28;20601;-76
2022/05/25 07:14:09;;;;;;;6.60;2.67;;;16.30;99.90;;;;;;5068130;28;20218;-75
2022/05/25 07:16:37;;;;;;;2.80;2.50;;;16.30;99.90;;;;;;5067862;28;20248;-75
2022/05/25 07:19:05;;;;;;;2.13;2.03;;;16.30;99.90;;;;;;5067167;28;20218;-75
2022/05/25 07:21:32;;;;;;;2.10;2.00;;;16.40;99.90;;;;;;5067642;28;20210;-76
2022/05/25 07:24:01;;;;;;;2.20;2.10;;;16.30;99.90;;;;;;5067471;28;20237;-74
2022/05/25 07:26:32;;;;;;;1.70;1.60;;;16.40;99.90;;;;;;5067119;28;20309;-75
2022/05/25 07:28:59;;;;;;;2.03;1.92;;;16.50;99.90;;;;;;5067202;28;20271;-75
2022/05/25 07:31:28;;;;;;;2.10;1.90;;;16.50;99.90;;;;;;5062048;28;20194;-74
2022/05/25 07:34:03;;;;;;;1.90;1.80;;;16.50;99.90;;;;;;5064684;28;20233;-75
2022/05/25 07:36:32;;;;;;;2.35;2.15;;;16.50;99.90;;;;;;5064451;28;20209;-75
2022/05/25 07:39:04;;;;;;;2.40;2.20;;;16.50;99.90;;;;;;5068166;28;20226;-76
2022/05/25 07:41:34;;;;;;;2.88;2.67;;;16.50;99.90;;;;;;5068197;28;20664;-75
2022/05/25 07:44:01;;;;;;;3.13;2.83;;;16.40;99.90;;;;;;5067960;28;20661;-75
2022/05/25 07:46:30;;;;;;;3.45;3.17;;;16.40;99.90;;;;;;5066301;28;20221;-76
2022/05/25 07:48:57;;;;;;;2.90;2.70;;;16.50;99.90;;;;;;5067273;28;20286;-75
2022/05/25 07:51:26;;;;;;;2.80;2.60;;;16.50;99.90;;;;;;5066163;28;20205;-75
2022/05/25 07:53:57;;;;;;;2.53;2.33;;;16.60;99.90;;;;;;5057143;22;20227;-77
2022/05/25 07:56:24;;;;;;;2.88;2.60;;;16.60;99.90;;;;;;5024901;28;20683;-76
2022/05/25 07:58:51;;;;;;;3.45;2.92;;;16.60;99.90;;;;;;5030062;28;20200;-76
2022/05/25 08:05:43;;;;;;;2.63;2.42;;;16.70;99.90;;;;;;5027924;28;20496;-76
2022/05/25 08:06:54;;;;;;;3.00;2.45;;;16.50;99.90;;;;;;5019694;28;20222;-77
2022/05/25 08:09:23;;;;;;;2.50;2.35;;;16.50;99.90;;;;;;5023468;28;20507;-78
2022/05/25 08:11:50;;;;;;;3.78;3.13;;;16.50;99.90;;;;;;5025284;28;20197;-77
2022/05/25 08:14:17;;;;;;;2.65;2.45;;;16.60;99.90;;;;;;5017154;28;20236;-76
2022/05/25 08:16:44;;;;;;;2.97;2.65;;;16.70;99.90;;;;;;5021780;28;20196;-76
2022/05/25 08:19:11;;;;;;;2.90;2.60;;;16.80;99.90;;;;;;5019749;28;20238;-77
2022/05/25 08:21:38;;;;;;;2.75;2.55;;;16.80;99.90;;;;;;5018155;28;20204;-78
2022/05/25 08:24:06;;;;;;;2.65;2.45;;;16.80;99.90;;;;;;5025423;28;20240;-77
2022/05/25 08:26:34;;;;;;;2.97;2.78;;;16.90;99.90;;;;;;5028275;28;20601;-77
2022/05/25 08:29:01;;;;;;;2.72;2.53;;;16.90;99.90;;;;;;5024738;28;20241;-77
2022/05/25 08:31:28;;;;;;;2.85;2.63;;;16.90;99.90;;;;;;5020581;28;20203;-76
2022/05/25 08:33:55;;;;;;;3.08;2.80;;;17.00;99.90;;;;;;5021261;28;20223;-77
2022/05/25 08:36:22;;;;;;;2.70;2.50;;;17.00;99.90;;;;;;5022826;28;20195;-77
2022/05/25 08:38:52;;;;;;;2.80;2.58;;;17.00;99.90;;;;;;5024212;28;20211;-76
2022/05/25 08:41:25;;;;;;;2.60;2.40;;;17.10;99.90;;;;;;5019749;28;20283;-75
2022/05/25 08:43:55;;;;;;;2.70;2.50;;;17.20;99.90;;;;;;5021479;28;20274;-77
2022/05/25 08:46:25;;;;;;;3.85;2.40;;;17.20;99.90;;;;;;5022214;28;20314;-76
2022/05/25 08:48:53;;;;;;;2.38;2.22;;;17.30;99.90;;;;;;5035992;28;20199;-77
2022/05/25 08:51:25;;;;;;;2.45;2.25;;;17.30;99.90;;;;;;5018414;28;20615;-76
2022/05/25 08:53:52;;;;;;;2.30;2.00;;;17.30;99.90;;;;;;5015714;28;20228;-76
2022/05/25 08:56:26;;;;;;;2.88;1.92;;;17.20;99.90;;;;;;5022650;28;20227;-79
2022/05/25 08:59:00;;;;;;;2.53;1.98;;;17.10;99.90;;;;;;5026575;28;20188;-78
2022/05/25 09:01:33;;;;;;;3.75;2.50;;;17.00;99.90;;;;;;5017218;28;20207;-78
2022/05/25 09:04:08;;;;;;;2.00;1.90;;;16.90;99.90;;;;;;5024980;28;20211;-77
2022/05/25 09:06:47;;;;;;;2.15;2.05;;;16.90;99.90;;;;;;5020214;28;20261;-76
2022/05/25 09:09:24;;;;;;;2.47;2.30;;;16.90;99.90;;;;;;5020074;28;20571;-76
2022/05/25 09:11:56;;;;;;;2.25;2.03;;;17.00;99.90;;;;;;5022757;28;20224;-78
2022/05/25 09:14:31;;;;;;;2.15;2.05;;;17.10;99.90;;;;;;5022219;28;20291;-76
2022/05/25 09:17:01;;;;;;;3.60;2.15;;;17.30;99.90;;;;;;5026800;28;20226;-77
2022/05/25 09:19:31;;;;;;;1.92;1.63;;;17.40;99.90;;;;;;5037549;28;20199;-77
2022/05/25 09:22:01;;;;;;;1.60;1.50;;;17.60;99.90;;;;;;5019224;28;20223;-76
2022/05/25 09:24:29;;;;;;;2.65;1.83;;;17.70;99.90;;;;;;5019549;28;20270;-76
2022/05/25 09:26:57;;;;;;;3.88;1.90;;;17.80;99.90;;;;;;5018054;28;20278;-76
2022/05/25 09:29:26;;;;;;;2.17;1.90;;;17.80;99.90;;;;;;5022492;28;20196;-77
2022/05/25 09:31:56;;;;;;;2.20;2.00;;;17.70;99.90;;;;;;5022396;28;20709;-77
2022/05/25 09:34:36;;;;;;;2.55;2.33;;;17.60;99.90;;;;;;5016151;28;20220;-76
2022/05/25 09:37:10;;;;;;;2.20;2.00;;;17.70;99.90;;;;;;5013892;28;20285;-75
2022/05/25 09:39:43;;;;;;;2.50;2.30;;;17.70;99.90;;;;;;5027783;28;20203;-77
2022/05/25 09:42:14;;;;;;;2.78;2.05;;;17.60;99.90;;;;;;5024723;28;20230;-77
2022/05/25 09:44:43;;;;;;;2.30;2.10;;;17.50;99.90;;;;;;5019522;28;20711;-76
2022/05/25 09:47:20;;;;;;;2.55;2.35;;;17.40;99.90;;;;;;5023095;28;20243;-75
2022/05/25 09:49:49;;;;;;;2.63;2.42;;;17.30;99.90;;;;;;5025095;28;20225;-76
2022/05/25 09:52:20;;;;;;;2.50;2.33;;;17.30;99.90;;;;;;5018030;28;20227;-76
2022/05/25 09:54:51;;;;;;;2.80;2.47;;;17.30;99.90;;;;;;5021071;28;20184;-77
2022/05/25 09:57:26;;;;;;;2.22;2.13;;;17.30;99.90;;;;;;5018993;28;20223;-76
2022/05/25 10:00:00;;;;;;;2.15;2.00;;;17.20;99.90;;;;;;5021405;28;20203;-77
2022/05/25 10:02:31;;;;;;;2.92;2.58;;;17.10;99.90;;;;;;5020613;28;20235;-76
2022/05/25 10:05:12;;;;;;;2.30;2.10;;;17.20;99.90;;;;;;5017531;28;20242;-76
2022/05/25 10:07:48;;;;;;;2.70;2.50;;;17.10;99.90;;;;;;5020820;28;20258;-76
2022/05/25 10:10:15;;;;;;;2.80;2.60;;;17.10;99.90;;;;;;5020254;28;20261;-76
2022/05/25 10:12:45;;;;;;;2.75;2.53;;;17.10;99.90;;;;;;5015669;28;20219;-74
2022/05/25 10:15:17;;;;;;;2.10;2.00;;;17.00;99.90;;;;;;5019015;28;20231;-75
2022/05/25 10:17:47;;;;;;;2.42;2.28;;;16.90;99.90;;;;;;5027446;28;20575;-76
2022/05/25 10:20:24;;;;;;;4.13;2.72;;;16.70;99.90;;;;;;5020853;28;20227;-76
2022/05/25 10:23:00;;;;;;;3.47;2.72;;;16.50;99.90;;;;;;5012900;28;20228;-76
2022/05/25 10:25:30;;;;;;;3.17;2.88;;;16.20;99.90;;;;;;5016734;28;20603;-76
2022/05/25 10:27:59;;;;;;;5.07;3.55;;;16.00;99.90;;;;;;5016879;28;20228;-76
2022/05/25 10:39:14;;;;;;;2.70;2.50;;;15.70;99.90;;;;;;5016058;28;20318;-76
2022/05/25 10:41:43;;;;;;;2.75;2.55;;;15.70;99.90;;;;;;5016849;28;20199;-76
2022/05/25 10:44:17;;;;;;;3.67;3.38;;;15.70;99.90;;;;;;5018820;28;20236;-77
2022/05/25 10:46:53;;;;;;;3.45;3.15;;;15.70;99.90;;;;;;5023513;28;20239;-77
2022/05/25 10:49:27;;;;;;;3.67;3.47;;;15.70;99.90;;;;;;5025536;28;20283;-76
2022/05/25 10:52:01;;;;;;;3.67;3.38;;;15.60;99.90;;;;;;5016391;28;20191;-75
2022/05/25 10:54:46;;;;;;;4.07;3.50;;;15.70;99.90;;;;;;5017581;28;20216;-76
2022/05/25 10:57:37;;;;;;;5.82;5.32;;;15.60;99.90;;;;;;5018899;28;20196;-75
2022/05/25 11:00:09;;;;;;;4.22;3.92;;;15.60;99.90;;;;;;5015552;28;20916;-75
2022/05/25 11:02:56;;;;;;;3.97;3.67;;;15.60;99.90;;;;;;5019313;28;20188;-77
2022/05/25 11:05:29;;;;;;;3.20;3.00;;;15.50;99.90;;;;;;5015510;28;20223;-76
2022/05/25 11:08:06;;;;;;;2.70;2.50;;;15.50;99.90;;;;;;5020856;28;20782;-76
2022/05/25 11:11:01;;;;;;;2.83;2.22;;;15.50;99.90;;;;;;5018694;28;20250;-76
2022/05/25 11:13:58;;;;;;;2.60;2.40;;;15.50;99.90;;;;;;5013744;28;20227;-76
2022/05/25 11:16:34;;;;;;;1.95;1.85;;;15.50;99.90;;;;;;5022070;28;20683;-76
2022/05/25 11:19:33;;;;;;;2.08;1.98;;;15.60;99.90;;;;;;5027114;28;20195;-75
2022/05/25 11:22:13;;;;;;;2.10;2.00;;;15.70;99.90;;;;;;5018319;28;20208;-76
2022/05/25 11:24:54;;;;;;;2.67;2.47;;;15.70;99.90;;;;;;5017642;28;20297;-76
2022/05/25 11:27:36;;;;;;;3.63;2.75;;;15.60;99.90;;;;;;5015947;28;20204;-76
2022/05/25 11:30:12;;;;;;;2.80;2.60;;;15.60;99.90;;;;;;5016764;28;20216;-77
2022/05/25 11:32:53;;;;;;;4.50;2.45;;;15.50;99.90;;;;;;5017587;28;20195;-76
2022/05/25 11:35:54;;;;;;;2.70;2.50;;;15.50;99.90;;;;;;5018712;28;20223;-77
2022/05/25 11:38:39;;;;;;;2.20;2.00;;;15.50;99.90;;;;;;5000210;28;20622;-76
2022/05/25 11:41:21;;;;;;;2.35;2.15;;;15.50;99.90;;;;;;5017177;28;20223;-75
2022/05/25 11:44:17;;;;;;;2.38;2.17;;;15.60;99.90;;;;;;5017253;28;20300;-76
2022/05/25 11:46:47;;;;;;;2.45;2.30;;;15.60;99.90;;;;;;4994297;28;20226;-76
2022/05/25 11:49:49;;;;;;;2.20;2.10;;;15.60;99.90;;;;;;5024879;28;20250;-76
2022/05/25 11:52:57;;;;;;;1.98;1.88;;;15.70;99.90;;;;;;4999565;28;20749;-75
2022/05/25 11:55:28;;;;;;;2.33;2.13;;;15.80;99.90;;;;;;4954439;28;20274;-76
2022/05/25 11:58:08;;;;;;;1.77;1.60;;;15.80;99.90;;;;;;5011601;28;20247;-76
2022/05/25 12:00:50;;;;;;;2.15;2.05;;;15.90;99.90;;;;;;5018149;28;20199;-76
2022/05/25 12:04:01;;;;;;;2.55;2.30;;;15.90;99.90;;;;;;5018055;28;20306;-76
2022/05/25 12:06:57;;;;;;;2.63;2.42;;;16.00;99.90;;;;;;5015918;28;20706;-77
2022/05/25 12:09:47;;;;;;;2.58;2.38;;;15.90;99.90;;;;;;5018469;28;20211;-76
2022/05/25 12:12:20;;;;;;;1.98;1.88;;;16.00;99.90;;;;;;5019701;28;20854;-75
2022/05/25 12:14:59;;;;;;;1.80;1.70;;;16.00;99.90;;;;;;5019435;28;20246;-76
2022/05/25 12:17:33;;;;;;;1.90;1.80;;;16.10;99.90;;;;;;5027298;28;20271;-74
2022/05/25 12:20:02;;;;;;;1.92;1.83;;;16.20;99.90;;;;;;5025572;28;20225;-76
2022/05/25 12:22:32;;;;;;;1.90;1.80;;;16.30;99.90;;;;;;5019108;28;20192;-76
2022/05/25 12:25:05;;;;;;;2.00;1.90;;;16.40;99.90;;;;;;5018513;28;20201;-76
2022/05/25 12:27:38;;;;;;;2.05;1.85;;;16.70;99.90;;;;;;5019205;28;20640;-76
2022/05/25 12:30:08;;;;;;;2.25;2.05;;;16.90;99.90;;;;;;5017863;28;20196;-76
2022/05/25 12:32:38;;;;;;;1.90;1.80;;;17.20;99.90;;;;;;5019351;28;20630;-75
2022/05/25 12:35:08;;;;;;;2.25;2.05;;;17.50;99.90;;;;;;5021627;28;20196;-75
2022/05/25 12:37:38;;;;;;;2.15;2.05;;;17.80;99.90;;;;;;5018640;28;20195;-76
2022/05/25 12:40:08;;;;;;;1.90;1.80;;;18.10;99.90;;;;;;5020420;28;20200;-76
2022/05/25 12:42:44;;;;;;;1.40;1.30;;;18.50;99.90;;;;;;5020140;28;20188;-76
2022/05/25 12:48:33;;;;;;;1.85;1.73;;;20.10;99.90;;;;;;5032924;28;20230;-75
2022/05/25 12:51:05;;;;;;;1.70;1.60;;;20.40;99.90;;;;;;5017993;28;20192;-76
2022/05/25 12:53:36;;;;;;;1.13;1.08;;;20.40;99.90;;;;;;5018213;28;20228;-77
2022/05/25 12:56:07;;;;;;;1.35;1.25;;;20.30;99.90;;;;;;5022937;28;20184;-77
2022/05/25 12:58:39;;;;;;;1.40;1.30;;;20.40;99.90;;;;;;5019343;28;20638;-77
2022/05/25 13:01:09;;;;;;;1.20;1.20;;;20.50;99.90;;;;;;5020946;28;20559;-76
2022/05/25 13:04:03;;;;;;;2.08;1.13;;;20.60;99.90;;;;;;5019902;28;20220;-75
2022/05/25 13:07:04;;;;;;;1.02;1.00;;;20.80;99.90;;;;;;5022380;28;20203;-76
2022/05/25 13:09:39;;;;;;;1.30;1.20;;;21.00;99.90;;;;;;5014645;28;20216;-76
2022/05/25 13:12:39;;;;;;;1.52;1.42;;;21.20;99.90;;;;;;5017729;28;20180;-77
2022/05/25 13:15:41;;;;;;;1.40;1.30;;;21.30;99.90;;;;;;5016898;28;20227;-75
2022/05/25 13:18:09;;;;;;;1.77;1.15;;;21.10;99.90;;;;;;5025913;28;20235;-76
2022/05/25 13:20:59;;;;;;;1.42;1.30;;;21.00;99.90;;;;;;5023678;28;20231;-76
2022/05/25 13:24:03;;;;;;;1.30;1.20;;;21.10;99.90;;;;;;5019972;28;20297;-76
2022/05/25 13:26:41;;;;;;;1.20;1.02;;;20.70;99.90;;;;;;5020906;28;20238;-76
2022/05/25 13:29:13;;;;;;;1.02;1.02;;;20.80;99.90;;;;;;5019487;28;20266;-76
2022/05/25 13:31:48;;;;;;;1.20;1.10;;;21.00;99.90;;;;;;5019682;28;20216;-76
2022/05/25 13:34:19;;;;;;;1.42;1.33;;;20.90;99.90;;;;;;5020221;28;20215;-76
2022/05/25 13:36:51;;;;;;;1.60;1.20;;;20.70;99.90;;;;;;5018301;28;20220;-77
2022/05/25 13:39:21;;;;;;;1.38;1.27;;;20.60;99.90;;;;;;5017669;28;20822;-76